createdAt,value
2018-05-15T00:02:21.724Z,91.10
2018-05-15T00:04:49.280Z,91.20
2018-05-15T00:07:16.872Z,91.30
2018-05-15T00:09:44.429Z,91.40
2018-05-15T00:12:11.997Z,91.50
2018-05-15T00:14:39.585Z,91.50
2018-05-15T00:17:07.528Z,91.50
2018-05-15T00:19:35.090Z,91.50
2018-05-15T00:22:02.685Z,91.70
2018-05-15T00:24:30.260Z,91.40
2018-05-15T00:26:57.793Z,91.30
2018-05-15T00:29:25.378Z,91.40
2018-05-15T00:31:53.709Z,91.30
2018-05-15T00:34:21.267Z,91.30
2018-05-15T00:36:48.869Z,91.20
2018-05-15T00:39:16.432Z,91.20
2018-05-15T00:41:43.991Z,91.30
2018-05-15T00:44:12.092Z,91.30
2018-05-15T00:46:39.612Z,91.30
2018-05-15T00:49:07.169Z,91.40
2018-05-15T00:51:34.755Z,91.80
2018-05-15T00:54:03.080Z,91.70
2018-05-15T00:56:30.671Z,91.30
2018-05-15T00:58:58.260Z,91.10
2018-05-15T01:01:25.824Z,91.10
2018-05-15T01:03:53.409Z,91.20
2018-05-15T01:06:21.035Z,91.20
2018-05-15T01:08:48.601Z,91.60
2018-05-15T01:11:16.161Z,91.30
2018-05-15T01:13:43.749Z,91.40
2018-05-15T01:16:11.310Z,91.40
2018-05-15T01:18:38.890Z,91.60
2018-05-15T01:21:06.476Z,91.80
2018-05-15T01:23:34.033Z,91.80
2018-05-15T01:26:01.594Z,91.80
2018-05-15T01:28:29.222Z,91.80
2018-05-15T01:30:56.781Z,91.90
2018-05-15T01:33:24.351Z,91.90
2018-05-15T01:35:51.945Z,91.90
2018-05-15T01:38:19.505Z,91.90
2018-05-15T01:40:47.070Z,91.90
2018-05-15T01:43:14.668Z,91.80
2018-05-15T01:45:42.239Z,91.80
2018-05-15T01:48:09.798Z,91.80
2018-05-15T01:50:38.179Z,91.50
2018-05-15T01:53:06.505Z,91.20
2018-05-15T01:55:34.066Z,91.10
2018-05-15T01:58:01.648Z,90.90
2018-05-15T02:00:29.205Z,90.80
2018-05-15T02:02:56.760Z,90.80
2018-05-15T02:05:24.346Z,90.70
2018-05-15T02:07:51.900Z,90.70
2018-05-15T02:10:19.461Z,90.70
2018-05-15T02:12:47.393Z,90.60
2018-05-15T02:15:14.953Z,90.50
2018-05-15T02:17:42.514Z,90.40
2018-05-15T02:20:10.099Z,90.50
2018-05-15T02:22:37.648Z,90.60
2018-05-15T02:25:05.206Z,90.70
2018-05-15T02:27:32.801Z,90.80
2018-05-15T02:30:00.360Z,91.10
2018-05-15T02:32:27.910Z,91.40
2018-05-15T02:34:55.526Z,91.50
2018-05-15T02:37:23.079Z,91.20
2018-05-15T02:39:50.628Z,91.10
2018-05-15T02:42:18.218Z,91.00
2018-05-15T02:44:45.780Z,91.10
2018-05-15T02:47:13.344Z,91.60
2018-05-15T02:49:41.014Z,91.90
2018-05-15T02:52:08.496Z,92.20
2018-05-15T02:54:36.278Z,92.40
2018-05-15T02:57:03.885Z,92.20
2018-05-15T02:59:31.440Z,91.70
2018-05-15T03:01:58.999Z,91.40
2018-05-15T03:04:26.647Z,91.20
2018-05-15T03:06:54.969Z,91.10
2018-05-15T03:09:22.511Z,91.10
2018-05-15T03:11:50.095Z,91.10
2018-05-15T03:14:17.655Z,91.10
2018-05-15T03:16:45.204Z,91.10
2018-05-15T03:19:13.086Z,91.00
2018-05-15T03:21:40.639Z,90.90
2018-05-15T03:24:08.194Z,90.90
2018-05-15T03:26:35.778Z,90.90
2018-05-15T03:29:03.333Z,90.80
2018-05-15T03:31:30.886Z,90.80
2018-05-15T03:33:58.474Z,90.80
2018-05-15T03:36:26.028Z,90.80
2018-05-15T03:38:53.576Z,90.70
2018-05-15T03:41:21.543Z,90.80
2018-05-15T03:43:49.094Z,91.10
2018-05-15T03:46:16.659Z,91.20
2018-05-15T03:48:44.240Z,91.10
2018-05-15T03:51:11.804Z,91.00
2018-05-15T03:53:39.393Z,91.10
2018-05-15T03:56:06.998Z,91.00
2018-05-15T03:58:34.555Z,90.70
2018-05-15T04:01:39.925Z,90.60
2018-05-15T04:04:44.516Z,90.60
2018-05-15T04:07:49.211Z,91.20
2018-05-15T04:10:16.775Z,92.00
2018-05-15T04:12:45.094Z,91.90
2018-05-15T04:15:12.681Z,91.80
2018-05-15T04:17:40.254Z,91.50
2018-05-15T04:20:07.813Z,91.40
2018-05-15T04:22:35.433Z,91.30
2018-05-15T04:25:02.993Z,91.30
2018-05-15T04:27:30.553Z,91.60
2018-05-15T04:29:58.152Z,91.90
2018-05-15T04:32:25.730Z,92.20
2018-05-15T04:34:53.286Z,92.30
2018-05-15T04:37:20.877Z,92.30
2018-05-15T04:39:49.209Z,92.10
2018-05-15T04:42:16.764Z,92.20
2018-05-15T04:44:44.730Z,92.30
2018-05-15T04:47:12.308Z,92.50
2018-05-15T04:49:39.863Z,92.60
2018-05-15T04:52:07.458Z,92.50
2018-05-15T04:54:35.013Z,92.60
2018-05-15T04:57:02.580Z,92.90
2018-05-15T04:59:30.621Z,92.60
2018-05-15T05:01:58.251Z,92.60
2018-05-15T05:04:25.749Z,92.30
2018-05-15T05:06:53.357Z,92.50
2018-05-15T05:09:22.777Z,92.20
2018-05-15T05:11:50.369Z,92.20
2018-05-15T05:14:19.036Z,92.20
2018-05-15T05:16:46.595Z,92.30
2018-05-15T05:19:15.376Z,92.30
2018-05-15T05:21:41.780Z,92.20
2018-05-15T05:24:10.104Z,92.60
2018-05-15T05:26:37.668Z,92.30
2018-05-15T05:29:05.652Z,92.20
2018-05-15T05:31:33.214Z,92.20
2018-05-15T05:34:00.768Z,92.10
2018-05-15T05:36:28.397Z,92.10
2018-05-15T05:38:55.957Z,92.30
2018-05-15T05:41:23.519Z,92.00
2018-05-15T05:43:51.113Z,91.80
2018-05-15T05:46:18.766Z,91.80
2018-05-15T05:48:47.638Z,91.80
2018-05-15T05:51:15.843Z,91.70
2018-05-15T05:53:43.396Z,91.60
2018-05-15T05:56:10.953Z,91.40
2018-05-15T05:58:39.547Z,91.60
2018-05-15T06:01:07.120Z,91.20
2018-05-15T06:03:34.676Z,91.10
2018-05-15T06:06:02.754Z,91.00
2018-05-15T06:08:30.309Z,90.90
2018-05-15T06:10:57.875Z,90.70
2018-05-15T06:13:25.947Z,90.60
2018-05-15T06:15:53.507Z,90.60
2018-05-15T06:18:21.079Z,90.40
2018-05-15T06:20:50.076Z,90.30
2018-05-15T06:23:17.511Z,90.10
2018-05-15T06:25:45.065Z,90.00
2018-05-15T06:28:12.704Z,90.00
2018-05-15T06:30:41.037Z,89.10
2018-05-15T06:33:09.933Z,89.10
2018-05-15T06:35:37.985Z,88.30
2018-05-15T06:38:05.531Z,88.10
2018-05-15T06:40:40.350Z,87.00
2018-05-15T06:43:08.364Z,86.60
2018-05-15T06:45:35.918Z,86.20
2018-05-15T06:48:03.472Z,85.70
2018-05-15T06:50:31.114Z,85.30
2018-05-15T06:52:58.665Z,85.20
2018-05-15T06:55:26.220Z,84.80
2018-05-15T06:57:53.855Z,84.40
2018-05-15T07:00:21.416Z,83.90
2018-05-15T07:02:48.976Z,83.20
2018-05-15T07:05:17.345Z,82.30
2018-05-15T07:07:44.974Z,82.20
2018-05-15T07:10:12.472Z,81.60
2018-05-15T07:12:40.077Z,79.10
2018-05-15T07:15:07.636Z,78.40
2018-05-15T07:17:35.187Z,77.10
2018-05-15T07:20:03.559Z,76.00
2018-05-15T07:22:31.885Z,75.20
2018-05-15T07:24:59.447Z,75.10
2018-05-15T07:27:27.103Z,73.30
2018-05-15T07:29:54.604Z,71.50
2018-05-15T07:32:22.173Z,70.70
2018-05-15T07:34:50.551Z,69.00
2018-05-15T07:37:18.111Z,68.10
2018-05-15T07:39:45.662Z,67.60
2018-05-15T07:42:13.786Z,67.40
2018-05-15T07:44:41.352Z,67.00
2018-05-15T07:47:08.904Z,65.60
2018-05-15T07:49:36.498Z,64.90
2018-05-15T07:52:04.059Z,65.20
2018-05-15T07:54:31.634Z,64.80
2018-05-15T07:57:00.036Z,65.20
2018-05-15T07:59:28.361Z,63.20
2018-05-15T08:01:55.911Z,63.00
2018-05-15T08:04:23.556Z,60.60
2018-05-15T08:06:51.084Z,60.50
2018-05-15T08:09:18.642Z,60.10
2018-05-15T08:11:46.231Z,59.10
2018-05-15T08:14:14.555Z,58.80
2018-05-15T08:16:42.092Z,58.70
2018-05-15T08:19:09.992Z,58.00
2018-05-15T08:21:37.557Z,57.70
2018-05-15T08:24:05.117Z,57.70
2018-05-15T08:26:33.592Z,57.80
2018-05-15T08:29:01.145Z,57.00
2018-05-15T08:31:28.715Z,57.00
2018-05-15T08:33:57.609Z,56.80
2018-05-15T08:36:25.227Z,56.70
2018-05-15T08:38:53.551Z,57.10
2018-05-15T08:41:22.132Z,57.10
2018-05-15T08:43:49.722Z,56.60
2018-05-15T08:46:17.271Z,56.60
2018-05-15T08:48:44.867Z,56.90
2018-05-15T08:51:13.192Z,57.10
2018-05-15T08:53:40.734Z,57.10
2018-05-15T08:56:08.337Z,57.00
2018-05-15T08:58:35.928Z,56.70
2018-05-15T09:01:04.246Z,56.10
2018-05-15T09:03:31.901Z,56.10
2018-05-15T09:06:00.208Z,56.90
2018-05-15T09:08:27.753Z,56.90
2018-05-15T09:10:55.346Z,56.90
2018-05-15T09:13:22.900Z,57.50
2018-05-15T09:15:50.691Z,56.40
2018-05-15T09:18:18.362Z,56.70
2018-05-15T09:20:45.851Z,56.30
2018-05-15T09:23:13.407Z,56.00
2018-05-15T09:25:41.468Z,56.00
2018-05-15T09:28:09.036Z,56.40
2018-05-15T09:30:36.592Z,56.20
2018-05-15T09:33:05.368Z,56.50
2018-05-15T09:35:32.915Z,56.50
2018-05-15T09:38:00.750Z,56.30
2018-05-15T09:40:28.400Z,56.30
2018-05-15T09:42:55.955Z,56.90
2018-05-15T09:45:23.503Z,55.80
2018-05-15T09:47:51.613Z,55.00
2018-05-15T09:50:19.172Z,55.10
2018-05-15T09:52:46.739Z,54.60
2018-05-15T09:55:15.215Z,54.70
2018-05-15T09:57:42.766Z,53.80
2018-05-15T10:00:10.751Z,53.20
2018-05-15T10:02:38.378Z,52.60
2018-05-15T10:05:05.920Z,52.40
2018-05-15T10:07:34.295Z,51.10
2018-05-15T10:10:01.923Z,51.00
2018-05-15T10:12:29.463Z,51.60
2018-05-15T10:14:57.029Z,50.80
2018-05-15T10:17:24.647Z,50.30
2018-05-15T10:19:52.981Z,49.50
2018-05-15T10:22:20.514Z,49.50
2018-05-15T10:24:48.495Z,49.20
2018-05-15T10:27:16.050Z,49.00
2018-05-15T10:29:43.610Z,48.70
2018-05-15T10:32:11.242Z,48.20
2018-05-15T10:34:39.555Z,47.80
2018-05-15T10:37:07.111Z,47.80
2018-05-15T10:39:35.100Z,47.70
2018-05-15T10:42:02.656Z,47.80
2018-05-15T10:44:30.204Z,47.60
2018-05-15T10:46:57.822Z,47.10
2018-05-15T10:49:25.373Z,46.80
2018-05-15T10:51:52.960Z,46.60
2018-05-15T10:54:20.533Z,45.90
2018-05-15T10:56:48.086Z,45.30
2018-05-15T10:59:16.439Z,45.80
2018-05-15T11:01:44.051Z,45.70
2018-05-15T11:04:11.606Z,45.30
2018-05-15T11:06:39.165Z,45.30
2018-05-15T11:09:06.765Z,45.40
2018-05-15T11:11:34.320Z,45.70
2018-05-15T11:14:04.287Z,45.60
2018-05-15T11:16:33.645Z,45.30
2018-05-15T11:19:38.117Z,45.30
2018-05-15T11:22:37.428Z,45.20
2018-05-15T11:25:04.982Z,45.10
2018-05-15T11:27:33.302Z,44.60
2018-05-15T11:30:00.949Z,44.60
2018-05-15T11:32:28.501Z,44.40
2018-05-15T11:34:59.636Z,44.50
2018-05-15T11:37:24.375Z,44.10
2018-05-15T11:39:51.936Z,43.60
2018-05-15T11:42:19.487Z,43.20
2018-05-15T11:44:47.117Z,43.90
2018-05-15T11:47:14.770Z,44.10
2018-05-15T11:49:43.343Z,43.50
2018-05-15T11:52:11.268Z,43.20
2018-05-15T11:54:38.913Z,43.40
2018-05-15T11:57:06.470Z,43.20
2018-05-15T11:59:34.092Z,42.60
2018-05-15T12:02:01.646Z,43.00
2018-05-15T12:04:29.193Z,42.50
2018-05-15T12:06:56.784Z,42.30
2018-05-15T12:09:25.121Z,40.80
2018-05-15T12:11:52.672Z,40.80
2018-05-15T12:14:20.267Z,40.30
2018-05-15T12:16:47.814Z,40.10
2018-05-15T12:19:15.363Z,40.70
2018-05-15T12:21:42.990Z,41.10
2018-05-15T12:24:10.557Z,38.90
2018-05-15T12:26:38.112Z,38.60
2018-05-15T12:29:07.145Z,38.60
2018-05-15T12:31:34.702Z,39.10
2018-05-15T12:34:02.263Z,39.00
2018-05-15T12:36:29.882Z,39.50
2018-05-15T12:38:57.431Z,39.80
2018-05-15T12:41:25.027Z,40.50
2018-05-15T12:43:53.526Z,40.40
2018-05-15T12:46:21.073Z,40.60
2018-05-15T12:48:48.694Z,39.30
2018-05-15T12:51:16.222Z,39.40
2018-05-15T12:53:43.770Z,39.60
2018-05-15T12:56:11.316Z,40.30
2018-05-15T12:58:39.315Z,39.00
2018-05-15T13:01:06.890Z,37.50
2018-05-15T13:03:34.445Z,37.20
2018-05-15T13:06:02.042Z,37.70
2018-05-15T13:08:30.356Z,38.90
2018-05-15T13:10:57.899Z,38.30
2018-05-15T13:13:25.530Z,37.80
2018-05-15T13:15:53.093Z,37.70
2018-05-15T13:18:20.758Z,36.20
2018-05-15T13:20:48.254Z,36.60
2018-05-15T13:23:15.805Z,36.20
2018-05-15T13:25:43.352Z,36.30
2018-05-15T13:28:11.711Z,35.50
2018-05-15T13:30:39.262Z,35.50
2018-05-15T13:33:06.818Z,35.70
2018-05-15T13:35:34.423Z,35.50
2018-05-15T13:38:02.743Z,31.80
2018-05-15T13:40:30.286Z,31.70
2018-05-15T13:42:57.906Z,32.30
2018-05-15T13:45:25.456Z,32.80
2018-05-15T13:47:55.844Z,33.50
2018-05-15T13:50:24.114Z,33.10
2018-05-15T13:52:51.582Z,31.80
2018-05-15T13:55:19.162Z,30.80
2018-05-15T13:57:46.726Z,31.40
2018-05-15T14:00:14.278Z,31.80
2018-05-15T14:02:41.828Z,31.70
2018-05-15T14:05:09.879Z,30.80
2018-05-15T14:07:37.425Z,30.80
2018-05-15T14:10:08.341Z,30.10
2018-05-15T14:12:35.901Z,30.00
2018-05-15T14:15:03.389Z,30.60
2018-05-15T14:17:30.976Z,31.00
2018-05-15T14:19:58.631Z,31.00
2018-05-15T14:22:26.131Z,30.80
2018-05-15T14:24:53.696Z,30.90
2018-05-15T14:27:21.336Z,31.10
2018-05-15T14:29:48.892Z,31.00
2018-05-15T14:32:16.446Z,31.30
2018-05-15T14:34:45.163Z,31.50
2018-05-15T14:37:13.078Z,31.90
2018-05-15T14:39:40.598Z,32.40
2018-05-15T14:42:45.216Z,32.90
2018-05-15T14:45:15.516Z,33.50
2018-05-15T14:47:43.062Z,32.60
2018-05-15T14:50:10.970Z,32.70
2018-05-15T14:52:38.523Z,31.50
2018-05-15T14:55:06.076Z,31.40
2018-05-15T14:57:33.741Z,30.20
2018-05-15T15:00:01.302Z,29.80
2018-05-15T15:02:28.838Z,30.30
2018-05-15T15:04:56.453Z,30.30
2018-05-15T15:07:24.018Z,30.50
2018-05-15T15:09:51.574Z,30.00
2018-05-15T15:12:19.179Z,30.20
2018-05-15T15:14:46.730Z,29.40
2018-05-15T15:17:14.282Z,29.40
2018-05-15T15:19:43.788Z,27.80
2018-05-15T15:22:12.107Z,28.40
2018-05-15T15:24:39.654Z,28.40
2018-05-15T15:27:07.250Z,28.30
2018-05-15T15:29:34.822Z,28.50
2018-05-15T15:32:02.345Z,28.60
2018-05-15T15:34:29.984Z,28.60
2018-05-15T15:36:57.555Z,28.40
2018-05-15T15:39:25.109Z,28.50
2018-05-15T15:41:52.708Z,28.60
2018-05-15T15:44:20.250Z,28.10
2018-05-15T15:46:47.835Z,28.50
2018-05-15T15:49:16.004Z,28.20
2018-05-15T15:51:43.548Z,28.30
2018-05-15T15:54:11.098Z,28.40
2018-05-15T15:56:38.688Z,28.10
2018-05-15T15:59:06.244Z,28.40
2018-05-15T16:01:34.046Z,28.30
2018-05-15T16:04:01.673Z,28.20
2018-05-15T16:06:29.212Z,28.10
2018-05-15T16:08:56.763Z,27.70
2018-05-15T16:11:24.368Z,27.90
2018-05-15T16:13:51.923Z,28.50
2018-05-15T16:16:19.931Z,28.00
2018-05-15T16:18:47.489Z,28.40
2018-05-15T16:21:15.046Z,28.70
2018-05-15T16:23:42.595Z,28.50
2018-05-15T16:26:10.751Z,28.60
2018-05-15T16:28:38.365Z,29.00
2018-05-15T16:31:05.865Z,29.50
2018-05-15T16:33:34.448Z,29.70
2018-05-15T16:36:02.000Z,29.40
2018-05-15T16:38:29.548Z,29.60
2018-05-15T16:40:58.060Z,29.50
2018-05-15T16:43:25.707Z,28.80
2018-05-15T16:45:53.201Z,28.20
2018-05-15T16:48:20.801Z,28.20
2018-05-15T16:50:48.357Z,28.10
2018-05-15T16:53:15.982Z,28.60
2018-05-15T16:55:53.787Z,29.30
2018-05-15T16:58:21.348Z,29.40
2018-05-15T17:00:48.896Z,29.40
2018-05-15T17:03:16.512Z,29.30
2018-05-15T17:05:44.839Z,29.50
2018-05-15T17:08:12.414Z,29.50
2018-05-15T17:10:39.998Z,29.60
2018-05-15T17:13:08.329Z,31.30
2018-05-15T17:15:35.874Z,30.60
2018-05-15T17:18:03.492Z,30.50
2018-05-15T17:20:31.039Z,30.90
2018-05-15T17:22:58.589Z,31.00
2018-05-15T17:25:26.227Z,31.00
2018-05-15T17:27:53.807Z,30.90
2018-05-15T17:30:21.365Z,30.90
2018-05-15T17:32:48.974Z,31.00
2018-05-15T17:35:17.332Z,31.30
2018-05-15T17:37:44.996Z,31.30
2018-05-15T17:40:12.593Z,31.70
2018-05-15T17:42:40.144Z,32.00
2018-05-15T17:45:08.467Z,32.20
2018-05-15T17:47:36.089Z,32.20
2018-05-15T17:50:04.406Z,33.20
2018-05-15T17:52:31.981Z,33.20
2018-05-15T17:54:59.571Z,33.80
2018-05-15T17:57:27.128Z,34.20
2018-05-15T17:59:54.760Z,34.60
2018-05-15T18:02:22.281Z,35.00
2018-05-15T18:04:49.846Z,35.20
2018-05-15T18:07:17.567Z,35.50
2018-05-15T18:09:45.161Z,35.60
2018-05-15T18:12:13.483Z,36.40
2018-05-15T18:14:41.057Z,36.30
2018-05-15T18:17:08.693Z,37.00
2018-05-15T18:19:36.980Z,37.20
2018-05-15T18:22:04.521Z,37.20
2018-05-15T18:24:32.164Z,37.10
2018-05-15T18:27:00.491Z,37.40
2018-05-15T18:29:28.036Z,37.40
2018-05-15T18:31:55.651Z,37.70
2018-05-15T18:34:23.205Z,38.10
2018-05-15T18:36:50.758Z,38.40
2018-05-15T18:39:18.356Z,38.80
2018-05-15T18:41:45.905Z,39.60
2018-05-15T18:44:14.221Z,39.50
2018-05-15T18:46:41.886Z,39.50
2018-05-15T18:49:10.192Z,40.20
2018-05-15T18:51:37.719Z,40.20
2018-05-15T18:54:06.026Z,40.60
2018-05-15T18:56:33.576Z,41.00
2018-05-15T18:59:01.134Z,41.40
2018-05-15T19:01:28.745Z,41.60
2018-05-15T19:03:57.075Z,42.30
2018-05-15T19:06:24.630Z,42.20
2018-05-15T19:08:52.706Z,42.50
2018-05-15T19:11:20.267Z,43.00
2018-05-15T19:13:47.851Z,43.40
2018-05-15T19:16:15.633Z,43.70
2018-05-15T19:18:43.191Z,44.00
2018-05-15T19:21:10.750Z,44.50
2018-05-15T19:23:38.779Z,44.70
2018-05-15T19:26:06.345Z,44.90
2018-05-15T19:28:33.904Z,45.10
2018-05-15T19:31:01.890Z,44.80
2018-05-15T19:33:35.217Z,44.80
2018-05-15T19:36:11.789Z,45.70
2018-05-15T19:38:39.334Z,46.40
2018-05-15T19:41:06.885Z,46.60
2018-05-15T19:43:34.501Z,46.40
2018-05-15T19:46:03.547Z,47.00
2018-05-15T19:48:31.098Z,46.90
2018-05-15T19:50:58.710Z,47.30
2018-05-15T19:53:27.032Z,48.90
2018-05-15T19:55:54.575Z,48.90
2018-05-15T19:58:22.213Z,49.50
2018-05-15T20:00:50.548Z,50.70
2018-05-15T20:03:18.095Z,50.60
2018-05-15T20:05:46.593Z,50.90
2018-05-15T20:08:14.147Z,51.30
2018-05-15T20:10:41.718Z,51.60
2018-05-15T20:13:10.093Z,51.70
2018-05-15T20:15:37.651Z,51.90
2018-05-15T20:18:05.212Z,52.30
2018-05-15T20:20:33.183Z,52.10
2018-05-15T20:23:00.754Z,52.20
2018-05-15T20:25:28.299Z,52.70
2018-05-15T20:27:55.898Z,53.20
2018-05-15T20:30:23.451Z,54.30
2018-05-15T20:32:51.017Z,54.00
2018-05-15T20:35:18.642Z,54.20
2018-05-15T20:37:46.191Z,55.10
2018-05-15T20:40:13.735Z,54.80
2018-05-15T20:42:41.353Z,55.10
2018-05-15T20:45:08.951Z,55.30
2018-05-15T20:47:36.472Z,55.70
2018-05-15T20:50:04.078Z,55.70
2018-05-15T20:52:32.442Z,56.50
2018-05-15T20:55:00.765Z,56.80
2018-05-15T20:57:28.370Z,56.80
2018-05-15T20:59:55.930Z,56.70
2018-05-15T21:02:23.489Z,56.20
2018-05-15T21:04:51.119Z,56.40
2018-05-15T21:07:18.672Z,57.00
2018-05-15T21:09:46.219Z,58.50
2018-05-15T21:12:13.822Z,57.60
2018-05-15T21:14:41.371Z,57.80
2018-05-15T21:17:08.931Z,58.60
2018-05-15T21:19:36.757Z,59.70
2018-05-15T21:22:04.662Z,59.60
2018-05-15T21:24:32.219Z,59.90
2018-05-15T21:26:59.837Z,60.10
2018-05-15T21:29:28.161Z,61.00
2018-05-15T21:31:55.772Z,61.00
2018-05-15T21:34:24.610Z,60.00
2018-05-15T21:36:52.174Z,60.00
2018-05-15T21:39:19.720Z,59.90
2018-05-15T21:41:48.138Z,60.10
2018-05-15T21:44:15.681Z,60.20
2018-05-15T21:46:43.251Z,60.30
2018-05-15T21:49:10.863Z,61.50
2018-05-15T21:51:39.607Z,62.60
2018-05-15T21:54:07.175Z,64.00
2018-05-15T21:56:34.870Z,63.50
2018-05-15T21:59:03.196Z,64.40
2018-05-15T22:01:30.750Z,64.40
2018-05-15T22:03:58.336Z,65.30
2018-05-15T22:06:25.882Z,65.90
2018-05-15T22:08:53.428Z,66.10
2018-05-15T22:11:20.514Z,66.30
2018-05-15T22:14:25.496Z,66.30
2018-05-15T22:17:30.133Z,66.60
2018-05-15T22:20:34.790Z,67.20
2018-05-15T22:23:02.589Z,66.80
2018-05-15T22:25:30.141Z,66.80
2018-05-15T22:27:57.703Z,67.80
2018-05-15T22:30:25.299Z,68.30
2018-05-15T22:32:53.625Z,68.70
2018-05-15T22:35:21.201Z,68.60
2018-05-15T22:37:49.257Z,68.90
2018-05-15T22:40:16.805Z,69.60
2018-05-15T22:42:44.362Z,70.00
2018-05-15T22:45:11.945Z,70.30
2018-05-15T22:47:39.500Z,71.10
2018-05-15T22:50:07.050Z,70.60
2018-05-15T22:52:34.642Z,70.50
2018-05-15T22:55:02.193Z,70.90
2018-05-15T22:57:29.756Z,71.50
2018-05-15T22:59:57.370Z,72.00
2018-05-15T23:02:24.933Z,72.60
2018-05-15T23:04:52.479Z,74.00
2018-05-15T23:07:20.842Z,73.10
2018-05-15T23:09:48.385Z,73.10
2018-05-15T23:12:15.946Z,73.00
2018-05-15T23:14:43.530Z,73.10
2018-05-15T23:17:11.091Z,73.20
2018-05-15T23:19:38.662Z,73.80
2018-05-15T23:22:06.265Z,73.30
2018-05-15T23:24:33.813Z,73.30
2018-05-15T23:27:01.372Z,73.60
2018-05-15T23:29:28.975Z,73.80
2018-05-15T23:31:56.519Z,74.10
2018-05-15T23:34:24.079Z,74.20
2018-05-15T23:36:51.671Z,74.30
2018-05-15T23:39:19.231Z,74.30
2018-05-15T23:41:46.787Z,74.50
2018-05-15T23:44:14.392Z,74.80
2018-05-15T23:46:41.961Z,75.00
2018-05-15T23:49:09.516Z,75.70
2018-05-15T23:51:37.120Z,74.90
2018-05-15T23:54:04.684Z,75.00
2018-05-15T23:56:32.237Z,75.10
2018-05-15T23:58:59.826Z,75.30
